createdAt,value
2023-05-21T00:01:16.412Z,100.00
2023-05-21T00:04:19.517Z,100.00
2023-05-21T00:07:23.306Z,100.00
2023-05-21T00:10:26.670Z,100.00
2023-05-21T00:13:29.235Z,100.00
2023-05-21T00:16:32.067Z,100.00
2023-05-21T00:19:34.629Z,100.00
2023-05-21T00:22:37.572Z,100.00
2023-05-21T00:25:40.128Z,100.00
2023-05-21T00:28:43.000Z,100.00
2023-05-21T00:31:45.604Z,100.00
2023-05-21T00:34:48.535Z,100.00
2023-05-21T00:37:52.105Z,100.00
2023-05-21T00:40:55.072Z,100.00
2023-05-21T00:44:00.377Z,100.00
2023-05-21T00:47:04.321Z,100.00
2023-05-21T00:50:08.039Z,100.00
2023-05-21T00:53:11.123Z,100.00
2023-05-21T00:56:13.833Z,100.00
2023-05-21T00:59:16.999Z,100.00
2023-05-21T01:02:19.915Z,100.00
2023-05-21T01:05:23.139Z,100.00
2023-05-21T01:08:27.377Z,100.00
2023-05-21T01:11:43.850Z,100.00
2023-05-21T01:14:46.498Z,100.00
2023-05-21T01:17:49.684Z,100.00
2023-05-21T01:20:53.108Z,100.00
2023-05-21T01:23:56.567Z,100.00
2023-05-21T01:27:00.631Z,100.00
2023-05-21T01:30:03.915Z,100.00
2023-05-21T01:33:17.520Z,100.00
2023-05-21T01:36:26.871Z,100.00
2023-05-21T01:39:38.481Z,100.00
2023-05-21T01:42:44.369Z,100.00
2023-05-21T01:45:47.788Z,100.00
2023-05-21T01:48:51.363Z,100.00
2023-05-21T01:51:54.155Z,100.00
2023-05-21T01:54:57.499Z,100.00
2023-05-21T01:58:02.217Z,100.00
2023-05-21T02:01:05.685Z,100.00
2023-05-21T02:04:08.767Z,100.00
2023-05-21T02:07:14.407Z,100.00
2023-05-21T02:10:17.819Z,100.00
2023-05-21T02:13:22.330Z,100.00
2023-05-21T02:16:26.603Z,100.00
2023-05-21T02:19:29.570Z,100.00
2023-05-21T02:22:32.542Z,100.00
2023-05-21T02:25:35.364Z,100.00
2023-05-21T02:28:38.705Z,100.00
2023-05-21T02:31:41.615Z,100.00
2023-05-21T02:34:46.438Z,100.00
2023-05-21T02:37:49.125Z,100.00
2023-05-21T02:40:52.169Z,100.00
2023-05-21T02:43:54.894Z,100.00
2023-05-21T02:46:57.950Z,100.00
2023-05-21T02:50:01.838Z,100.00
2023-05-21T02:53:06.321Z,100.00
2023-05-21T02:56:09.363Z,100.00
2023-05-21T02:59:12.471Z,100.00
2023-05-21T03:02:15.236Z,100.00
2023-05-21T03:05:18.558Z,100.00
2023-05-21T03:08:21.917Z,100.00
2023-05-21T03:11:24.781Z,100.00
2023-05-21T03:14:29.036Z,100.00
2023-05-21T03:17:32.221Z,100.00
2023-05-21T03:20:35.041Z,100.00
2023-05-21T03:23:38.029Z,100.00
2023-05-21T03:26:40.782Z,100.00
2023-05-21T03:29:43.870Z,100.00
2023-05-21T03:32:47.298Z,100.00
2023-05-21T03:35:50.769Z,100.00
2023-05-21T03:38:53.478Z,100.00
2023-05-21T03:41:56.725Z,100.00
2023-05-21T03:45:00.812Z,100.00
2023-05-21T03:48:05.760Z,100.00
2023-05-21T03:51:09.611Z,100.00
2023-05-21T03:54:12.836Z,100.00
2023-05-21T03:57:15.955Z,100.00
2023-05-21T04:00:21.734Z,100.00
2023-05-21T04:03:24.826Z,100.00
2023-05-21T04:06:28.094Z,100.00
2023-05-21T04:09:31.197Z,100.00
2023-05-21T04:12:33.828Z,100.00
2023-05-21T04:15:38.835Z,100.00
2023-05-21T04:18:43.569Z,100.00
2023-05-21T04:21:48.509Z,100.00
2023-05-21T04:24:51.350Z,100.00
2023-05-21T04:27:54.851Z,100.00
2023-05-21T04:30:59.338Z,100.00
2023-05-21T04:34:02.441Z,100.00
2023-05-21T04:37:05.343Z,100.00
2023-05-21T04:40:09.747Z,100.00
2023-05-21T04:43:12.428Z,100.00
2023-05-21T04:46:15.489Z,100.00
2023-05-21T04:49:18.280Z,100.00
2023-05-21T04:52:21.114Z,98.32
2023-05-21T04:55:23.680Z,98.69
2023-05-21T04:58:28.026Z,97.75
2023-05-21T05:01:32.430Z,98.21
2023-05-21T05:04:37.274Z,98.94
2023-05-21T05:07:40.175Z,98.40
2023-05-21T05:10:43.940Z,98.99
2023-05-21T05:13:46.662Z,98.02
2023-05-21T05:16:50.703Z,97.96
2023-05-21T05:19:53.850Z,98.45
2023-05-21T05:22:56.707Z,97.52
2023-05-21T05:25:59.508Z,97.11
2023-05-21T05:29:03.460Z,96.73
2023-05-21T05:32:06.710Z,96.92
2023-05-21T05:35:10.028Z,96.84
2023-05-21T05:38:13.611Z,97.30
2023-05-21T05:41:17.556Z,97.13
2023-05-21T05:44:20.148Z,97.02
2023-05-21T05:47:23.381Z,96.38
2023-05-21T05:50:25.849Z,96.05
2023-05-21T05:53:29.053Z,95.10
2023-05-21T05:56:32.447Z,95.31
2023-05-21T05:59:36.114Z,94.37
2023-05-21T06:02:38.937Z,94.04
2023-05-21T06:05:42.030Z,94.29
2023-05-21T06:08:45.015Z,93.89
2023-05-21T06:11:48.063Z,93.65
2023-05-21T06:14:51.004Z,91.56
2023-05-21T06:17:55.276Z,92.80
2023-05-21T06:20:58.588Z,91.32
2023-05-21T06:24:02.283Z,90.41
2023-05-21T06:27:05.446Z,90.24
2023-05-21T06:30:09.141Z,88.64
2023-05-21T06:33:12.787Z,88.60
2023-05-21T06:36:16.671Z,87.89
2023-05-21T06:39:20.017Z,88.59
2023-05-21T06:42:24.293Z,88.24
2023-05-21T06:45:27.588Z,88.23
2023-05-21T06:48:32.281Z,89.04
2023-05-21T06:51:35.192Z,84.41
2023-05-21T06:54:38.844Z,85.05
2023-05-21T06:57:41.884Z,81.82
2023-05-21T07:00:45.138Z,79.18
2023-05-21T07:03:48.201Z,79.15
2023-05-21T07:06:52.454Z,79.75
2023-05-21T07:09:55.268Z,79.22
2023-05-21T07:12:58.283Z,79.00
2023-05-21T07:16:01.222Z,81.06
2023-05-21T07:19:05.047Z,79.73
2023-05-21T07:22:07.988Z,80.50
2023-05-21T07:25:11.083Z,78.01
2023-05-21T07:28:13.671Z,75.97
2023-05-21T07:31:16.622Z,76.55
2023-05-21T07:34:20.048Z,75.73
2023-05-21T07:37:22.956Z,75.64
2023-05-21T07:40:25.611Z,76.74
2023-05-21T07:43:28.640Z,75.09
2023-05-21T07:46:31.921Z,75.20
2023-05-21T07:49:35.129Z,74.75
2023-05-21T07:52:38.550Z,75.77
2023-05-21T07:55:47.741Z,73.10
2023-05-21T07:58:50.711Z,74.08
2023-05-21T08:01:53.782Z,72.94
2023-05-21T08:04:56.708Z,72.46
2023-05-21T08:08:00.678Z,73.03
2023-05-21T08:11:04.319Z,70.97
2023-05-21T08:14:07.102Z,71.58
2023-05-21T08:17:11.516Z,71.61
2023-05-21T08:20:15.149Z,70.08
2023-05-21T08:23:18.611Z,65.62
2023-05-21T08:26:21.950Z,66.78
2023-05-21T08:29:25.012Z,67.25
2023-05-21T08:32:28.511Z,69.76
2023-05-21T08:35:31.573Z,68.93
2023-05-21T08:38:35.033Z,67.40
2023-05-21T08:41:39.889Z,66.37
2023-05-21T08:44:44.606Z,65.27
2023-05-21T08:47:48.275Z,65.04
2023-05-21T08:50:55.256Z,65.86
2023-05-21T08:54:00.013Z,66.65
2023-05-21T08:57:03.914Z,65.05
2023-05-21T09:00:07.675Z,63.86
2023-05-21T09:03:11.621Z,63.23
2023-05-21T09:06:15.162Z,61.85
2023-05-21T09:09:26.354Z,63.12
2023-05-21T09:12:29.690Z,61.73
2023-05-21T09:15:33.303Z,60.69
2023-05-21T09:18:36.606Z,59.06
2023-05-21T09:21:39.645Z,59.97
2023-05-21T09:24:44.307Z,60.47
2023-05-21T09:27:46.923Z,59.36
2023-05-21T09:30:53.639Z,57.74
2023-05-21T09:33:56.392Z,56.07
2023-05-21T09:37:01.648Z,57.67
2023-05-21T09:40:15.186Z,57.06
2023-05-21T09:43:21.687Z,56.31
2023-05-21T09:46:26.565Z,54.27
2023-05-21T09:49:30.332Z,56.17
2023-05-21T09:52:36.675Z,54.23
2023-05-21T09:55:40.077Z,54.28
2023-05-21T09:58:43.035Z,54.11
2023-05-21T10:01:46.341Z,52.39
2023-05-21T10:04:50.927Z,54.78
2023-05-21T10:07:59.568Z,53.46
2023-05-21T10:11:05.070Z,52.56
2023-05-21T10:14:10.217Z,47.85
2023-05-21T10:17:13.801Z,50.35
2023-05-21T10:20:16.662Z,49.95
2023-05-21T10:23:20.552Z,49.75
2023-05-21T10:26:24.264Z,49.42
2023-05-21T10:29:27.333Z,48.27
2023-05-21T10:32:30.597Z,48.79
2023-05-21T10:35:34.471Z,46.20
2023-05-21T10:38:38.826Z,47.73
2023-05-21T10:42:13.926Z,46.99
2023-05-21T10:45:34.785Z,46.10
2023-05-21T10:49:08.867Z,46.38
2023-05-21T10:52:25.488Z,47.14
2023-05-21T10:55:50.524Z,45.49
2023-05-21T10:59:18.308Z,43.30
2023-05-21T11:02:21.544Z,44.47
2023-05-21T11:05:52.956Z,43.46
2023-05-21T11:08:56.016Z,46.54
2023-05-21T11:12:00.217Z,44.57
2023-05-21T11:15:03.027Z,43.29
2023-05-21T11:18:05.774Z,44.61
2023-05-21T11:21:12.450Z,42.70
2023-05-21T11:24:19.439Z,42.20
2023-05-21T11:27:34.678Z,40.61
2023-05-21T11:30:39.577Z,42.74
2023-05-21T11:33:43.751Z,43.76
2023-05-21T11:36:48.081Z,43.73
2023-05-21T11:39:51.670Z,43.52
2023-05-21T11:42:55.467Z,38.90
2023-05-21T11:45:59.224Z,39.59
2023-05-21T11:49:03.026Z,41.51
2023-05-21T11:52:07.390Z,39.92
2023-05-21T11:55:11.344Z,41.70
2023-05-21T11:58:16.496Z,40.80
2023-05-21T12:01:26.546Z,41.01
2023-05-21T12:04:33.055Z,39.85
2023-05-21T12:07:35.624Z,41.52
2023-05-21T12:10:39.801Z,41.69
2023-05-21T12:13:42.528Z,43.65
2023-05-21T12:16:45.449Z,39.60
2023-05-21T12:19:49.364Z,39.75
2023-05-21T12:22:52.358Z,40.70
2023-05-21T12:25:55.192Z,41.67
2023-05-21T12:28:58.025Z,40.79
2023-05-21T12:32:01.571Z,39.26
2023-05-21T12:35:04.822Z,39.61
2023-05-21T12:38:09.708Z,39.35
2023-05-21T12:41:12.693Z,40.71
2023-05-21T12:44:15.229Z,39.44
2023-05-21T12:47:18.461Z,37.76
2023-05-21T12:50:21.585Z,41.27
2023-05-21T12:53:24.435Z,42.20
2023-05-21T12:56:27.216Z,40.82
2023-05-21T12:59:45.693Z,39.68
2023-05-21T13:02:48.284Z,39.35
2023-05-21T13:05:59.327Z,41.50
2023-05-21T13:09:01.883Z,38.28
2023-05-21T13:12:05.350Z,39.62
2023-05-21T13:15:08.289Z,39.15
2023-05-21T13:18:12.464Z,41.15
2023-05-21T13:21:15.105Z,40.84
2023-05-21T13:24:17.971Z,40.83
2023-05-21T13:27:21.187Z,42.19
2023-05-21T13:30:24.150Z,44.04
2023-05-21T13:33:26.843Z,44.51
2023-05-21T13:36:29.858Z,43.89
2023-05-21T13:39:32.449Z,45.17
2023-05-21T13:42:35.639Z,45.51
2023-05-21T13:45:38.943Z,43.05
2023-05-21T13:48:43.304Z,44.48
2023-05-21T13:51:45.946Z,44.02
2023-05-21T13:54:48.799Z,45.00
2023-05-21T13:57:51.455Z,44.03
2023-05-21T14:00:54.608Z,45.68
2023-05-21T14:03:57.942Z,45.04
2023-05-21T14:07:00.990Z,45.68
2023-05-21T14:10:04.284Z,45.85
2023-05-21T14:13:18.453Z,45.49
2023-05-21T14:16:24.903Z,42.01
2023-05-21T14:19:27.748Z,44.30
2023-05-21T14:22:31.118Z,43.70
2023-05-21T14:25:33.752Z,43.96
2023-05-21T14:28:36.922Z,43.20
2023-05-21T14:31:39.609Z,42.60
2023-05-21T14:34:42.547Z,41.75
2023-05-21T14:37:45.023Z,41.58
2023-05-21T14:40:47.929Z,41.68
2023-05-21T14:43:50.706Z,41.90
2023-05-21T14:46:53.661Z,45.74
2023-05-21T14:49:56.268Z,43.00
2023-05-21T14:52:59.045Z,42.14
2023-05-21T14:56:01.721Z,43.49
2023-05-21T14:59:04.815Z,44.33
2023-05-21T15:02:07.403Z,45.70
2023-05-21T15:05:10.441Z,46.45
2023-05-21T15:08:13.038Z,45.35
2023-05-21T15:11:15.950Z,44.98
2023-05-21T15:14:19.493Z,46.88
2023-05-21T15:17:22.362Z,44.76
2023-05-21T15:20:25.121Z,45.35
2023-05-21T15:23:28.039Z,48.21
2023-05-21T15:26:30.591Z,47.63
2023-05-21T15:29:33.558Z,47.72
2023-05-21T15:32:36.398Z,48.80
2023-05-21T15:35:39.726Z,51.77
2023-05-21T15:38:42.578Z,51.04
2023-05-21T15:41:45.646Z,52.62
2023-05-21T15:44:48.197Z,52.90
2023-05-21T15:47:51.157Z,52.68
2023-05-21T15:50:54.409Z,51.54
2023-05-21T15:53:57.413Z,51.86
2023-05-21T15:57:00.095Z,52.48
2023-05-21T16:00:03.955Z,51.21
2023-05-21T16:03:12.674Z,52.18
2023-05-21T16:06:15.664Z,51.51
2023-05-21T16:09:18.323Z,52.09
2023-05-21T16:12:21.303Z,51.61
2023-05-21T16:15:23.885Z,51.64
2023-05-21T16:18:26.776Z,51.66
2023-05-21T16:21:29.265Z,51.62
2023-05-21T16:24:32.129Z,53.33
2023-05-21T16:27:35.618Z,53.88
2023-05-21T16:30:38.650Z,53.41
2023-05-21T16:33:41.461Z,53.09
2023-05-21T16:36:44.367Z,53.81
2023-05-21T16:39:46.949Z,54.00
2023-05-21T16:42:49.900Z,56.10
2023-05-21T16:45:53.549Z,56.80
2023-05-21T16:48:56.527Z,57.41
2023-05-21T16:51:59.220Z,57.32
2023-05-21T16:55:02.453Z,57.37
2023-05-21T16:58:05.938Z,56.67
2023-05-21T17:01:08.844Z,57.36
2023-05-21T17:04:11.772Z,57.84
2023-05-21T17:07:15.610Z,58.79
2023-05-21T17:10:19.572Z,60.89
2023-05-21T17:13:23.405Z,63.03
2023-05-21T17:16:26.737Z,62.44
2023-05-21T17:19:29.778Z,63.21
2023-05-21T17:22:32.569Z,62.81
2023-05-21T17:25:35.735Z,63.05
2023-05-21T17:28:38.547Z,63.60
2023-05-21T17:31:41.597Z,63.57
2023-05-21T17:34:44.259Z,66.14
2023-05-21T17:37:48.075Z,65.92
2023-05-21T17:40:50.732Z,66.28
2023-05-21T17:43:53.648Z,66.71
2023-05-21T17:46:56.698Z,68.17
2023-05-21T17:49:59.783Z,68.28
2023-05-21T17:53:02.398Z,69.16
2023-05-21T17:56:06.343Z,68.94
2023-05-21T17:59:10.144Z,69.10
2023-05-21T18:02:13.733Z,70.98
2023-05-21T18:05:16.693Z,70.00
2023-05-21T18:08:19.549Z,71.81
2023-05-21T18:11:23.053Z,73.34
2023-05-21T18:14:25.621Z,72.91
2023-05-21T18:17:28.458Z,73.20
2023-05-21T18:20:31.346Z,72.51
2023-05-21T18:23:34.183Z,73.92
2023-05-21T18:26:36.855Z,73.54
2023-05-21T18:29:39.780Z,73.19
2023-05-21T18:32:44.213Z,73.73
2023-05-21T18:35:47.297Z,74.85
2023-05-21T18:38:50.083Z,74.52
2023-05-21T18:42:01.536Z,75.01
2023-05-21T18:45:14.746Z,75.64
2023-05-21T18:48:18.016Z,74.82
2023-05-21T18:51:20.751Z,74.25
2023-05-21T18:54:24.213Z,74.46
2023-05-21T18:57:26.832Z,74.82
2023-05-21T19:00:30.117Z,74.92
2023-05-21T19:03:32.675Z,74.81
2023-05-21T19:06:36.176Z,75.03
2023-05-21T19:09:38.869Z,75.51
2023-05-21T19:12:43.458Z,75.68
2023-05-21T19:15:48.097Z,75.82
2023-05-21T19:18:51.080Z,76.29
2023-05-21T19:21:54.063Z,75.77
2023-05-21T19:24:57.053Z,76.46
2023-05-21T19:28:00.817Z,76.52
2023-05-21T19:31:03.942Z,76.44
2023-05-21T19:34:10.478Z,77.03
2023-05-21T19:37:13.876Z,77.41
2023-05-21T19:40:17.768Z,77.97
2023-05-21T19:43:21.198Z,78.66
2023-05-21T19:46:23.933Z,78.60
2023-05-21T19:49:26.981Z,78.63
2023-05-21T19:52:29.643Z,79.21
2023-05-21T19:55:35.406Z,79.64
2023-05-21T19:58:37.924Z,79.76
2023-05-21T20:01:43.260Z,80.45
2023-05-21T20:04:46.149Z,81.33
2023-05-21T20:07:48.845Z,81.49
2023-05-21T20:10:52.120Z,82.57
2023-05-21T20:13:54.820Z,83.60
2023-05-21T20:16:58.805Z,83.46
2023-05-21T20:20:03.701Z,83.58
2023-05-21T20:23:06.684Z,83.15
2023-05-21T20:26:09.401Z,83.16
2023-05-21T20:29:12.335Z,83.10
2023-05-21T20:32:14.918Z,83.38
2023-05-21T20:35:18.077Z,83.21
2023-05-21T20:38:21.019Z,83.09
2023-05-21T20:41:25.467Z,83.74
2023-05-21T20:44:29.327Z,83.29
2023-05-21T20:47:33.918Z,83.06
2023-05-21T20:50:37.392Z,83.00
2023-05-21T20:53:40.862Z,83.48
2023-05-21T20:56:44.944Z,84.26
2023-05-21T20:59:48.760Z,86.18
2023-05-21T21:02:51.503Z,86.64
2023-05-21T21:05:56.399Z,87.64
2023-05-21T21:08:59.077Z,88.12
2023-05-21T21:12:11.378Z,87.99
2023-05-21T21:15:24.269Z,88.81
2023-05-21T21:18:27.290Z,91.33
2023-05-21T21:21:29.995Z,91.97
2023-05-21T21:24:33.061Z,92.36
2023-05-21T21:27:36.281Z,92.62
2023-05-21T21:30:41.180Z,93.05
2023-05-21T21:33:44.012Z,93.94
2023-05-21T21:36:47.155Z,94.32
2023-05-21T21:39:49.837Z,94.36
2023-05-21T21:42:53.173Z,94.80
2023-05-21T21:45:55.862Z,95.15
2023-05-21T21:48:59.064Z,95.74
2023-05-21T21:52:01.898Z,95.38
2023-05-21T21:55:05.148Z,95.55
2023-05-21T21:58:07.658Z,96.02
2023-05-21T22:01:10.569Z,96.90
2023-05-21T22:04:13.490Z,97.45
2023-05-21T22:07:18.266Z,97.05
2023-05-21T22:10:21.309Z,97.23
2023-05-21T22:13:24.572Z,97.46
2023-05-21T22:16:28.364Z,97.41
2023-05-21T22:19:32.930Z,97.51
2023-05-21T22:22:35.784Z,97.51
2023-05-21T22:25:38.596Z,97.00
2023-05-21T22:28:42.169Z,96.84
2023-05-21T22:31:44.797Z,96.01
2023-05-21T22:34:47.824Z,95.35
2023-05-21T22:37:50.364Z,93.94
2023-05-21T22:40:53.335Z,92.58
2023-05-21T22:43:56.239Z,89.42
2023-05-21T22:47:00.320Z,88.20
2023-05-21T22:50:04.530Z,86.10
2023-05-21T22:53:07.394Z,83.88
2023-05-21T22:56:09.958Z,82.79
2023-05-21T22:59:13.566Z,82.95
2023-05-21T23:02:16.608Z,83.47
2023-05-21T23:05:19.555Z,85.08
2023-05-21T23:08:22.215Z,84.45
2023-05-21T23:11:25.133Z,85.20
2023-05-21T23:14:27.716Z,86.56
2023-05-21T23:17:30.821Z,86.25
2023-05-21T23:20:33.768Z,88.05
2023-05-21T23:23:36.768Z,87.75
2023-05-21T23:26:39.344Z,87.93
2023-05-21T23:29:42.266Z,88.87
2023-05-21T23:32:44.867Z,89.31
2023-05-21T23:35:47.791Z,89.53
2023-05-21T23:38:50.478Z,89.01
2023-05-21T23:41:53.270Z,89.65
2023-05-21T23:44:56.092Z,90.02
2023-05-21T23:47:58.970Z,90.33
2023-05-21T23:51:01.557Z,89.53
2023-05-21T23:54:04.518Z,90.18
2023-05-21T23:57:07.236Z,89.49
